Hittle, Illinois
Current Conditions -  °F | °C
As of 8:55 PM on Friday 19 Dec 2014 (Local Time) from KAAA Reporting Station
Broken Clouds Broken Clouds  
Wind Chill: 30°   Ceiling: 5500
Heat Index: 30°   Visibility: 7mi
Dew Point: 27°   Wind: 3mph
Humidity: 87%   Direction: 90°E
Pressure: 30.28"   Gusts: NA
Location:  40.3088°N, 89.3237°W
Report Text: KAAA 200255Z AUTO 09003KT 7SM BKN055 M01/M03 A3028 RMK AO2 T10111030
Loading
Personal Weather Stations






























Interactive Weather Map New forecast layout! Learn more

10-Day Weather Forecast

Advertisements
Track Severe Weather on mobile